sensor_id;sensor_type;location;lat;lon;timestamp;P1;durP1;ratioP1;P2;durP2;ratioP2
70052;SDS011;57398;52.032;4.376;2022-07-17T00:02:01;7.47;;;2.93;;
70052;SDS011;57398;52.032;4.376;2022-07-17T00:04:28;6.88;;;2.80;;
70052;SDS011;57398;52.032;4.376;2022-07-17T00:06:57;6.60;;;2.95;;
70052;SDS011;57398;52.032;4.376;2022-07-17T00:09:25;6.07;;;2.88;;
70052;SDS011;57398;52.032;4.376;2022-07-17T00:11:53;7.35;;;2.90;;
70052;SDS011;57398;52.032;4.376;2022-07-17T00:14:20;6.40;;;2.97;;
70052;SDS011;57398;52.032;4.376;2022-07-17T00:16:48;7.70;;;3.03;;
70052;SDS011;57398;52.032;4.376;2022-07-17T00:19:16;6.85;;;2.85;;
70052;SDS011;57398;52.032;4.376;2022-07-17T00:21:43;5.50;;;2.70;;
70052;SDS011;57398;52.032;4.376;2022-07-17T00:24:12;7.03;;;2.60;;
70052;SDS011;57398;52.032;4.376;2022-07-17T00:26:46;7.90;;;3.07;;
70052;SDS011;57398;52.032;4.376;2022-07-17T00:29:13;6.63;;;2.40;;
70052;SDS011;57398;52.032;4.376;2022-07-17T00:31:41;7.57;;;2.75;;
70052;SDS011;57398;52.032;4.376;2022-07-17T00:34:09;8.43;;;3.03;;
70052;SDS011;57398;52.032;4.376;2022-07-17T00:36:37;6.53;;;2.42;;
70052;SDS011;57398;52.032;4.376;2022-07-17T00:39:05;7.03;;;2.60;;
70052;SDS011;57398;52.032;4.376;2022-07-17T00:41:34;7.68;;;2.65;;
70052;SDS011;57398;52.032;4.376;2022-07-17T00:44:05;7.30;;;2.55;;
70052;SDS011;57398;52.032;4.376;2022-07-17T00:46:32;6.97;;;2.78;;
70052;SDS011;57398;52.032;4.376;2022-07-17T00:49:00;7.53;;;2.72;;
70052;SDS011;57398;52.032;4.376;2022-07-17T00:51:28;5.50;;;2.70;;
70052;SDS011;57398;52.032;4.376;2022-07-17T00:53:56;9.02;;;3.13;;
70052;SDS011;57398;52.032;4.376;2022-07-17T00:56:29;8.18;;;3.58;;
70052;SDS011;57398;52.032;4.376;2022-07-17T00:58:58;9.05;;;4.30;;
70052;SDS011;57398;52.032;4.376;2022-07-17T01:01:27;9.35;;;4.53;;
70052;SDS011;57398;52.032;4.376;2022-07-17T01:03:55;8.20;;;3.90;;
70052;SDS011;57398;52.032;4.376;2022-07-17T01:06:23;8.98;;;3.83;;
70052;SDS011;57398;52.032;4.376;2022-07-17T01:08:50;8.40;;;3.60;;
70052;SDS011;57398;52.032;4.376;2022-07-17T01:11:18;7.40;;;3.35;;
70052;SDS011;57398;52.032;4.376;2022-07-17T01:13:45;7.45;;;3.40;;
70052;SDS011;57398;52.032;4.376;2022-07-17T01:16:15;8.80;;;3.37;;
70052;SDS011;57398;52.032;4.376;2022-07-17T01:18:42;6.95;;;3.00;;
70052;SDS011;57398;52.032;4.376;2022-07-17T01:21:11;8.13;;;3.22;;
70052;SDS011;57398;52.032;4.376;2022-07-17T01:23:39;9.93;;;3.10;;
70052;SDS011;57398;52.032;4.376;2022-07-17T01:26:07;7.22;;;3.03;;
70052;SDS011;57398;52.032;4.376;2022-07-17T01:28:34;6.63;;;2.57;;
70052;SDS011;57398;52.032;4.376;2022-07-17T01:31:02;6.45;;;2.63;;
70052;SDS011;57398;52.032;4.376;2022-07-17T01:33:30;6.25;;;2.50;;
70052;SDS011;57398;52.032;4.376;2022-07-17T01:35:57;6.22;;;2.75;;
70052;SDS011;57398;52.032;4.376;2022-07-17T01:38:26;9.05;;;3.50;;
70052;SDS011;57398;52.032;4.376;2022-07-17T01:40:54;8.97;;;3.37;;
70052;SDS011;57398;52.032;4.376;2022-07-17T01:43:22;6.53;;;3.00;;
70052;SDS011;57398;52.032;4.376;2022-07-17T01:45:49;8.35;;;3.47;;
70052;SDS011;57398;52.032;4.376;2022-07-17T01:48:23;7.15;;;3.03;;
70052;SDS011;57398;52.032;4.376;2022-07-17T01:50:51;7.65;;;3.33;;
70052;SDS011;57398;52.032;4.376;2022-07-17T01:53:19;6.27;;;2.83;;
70052;SDS011;57398;52.032;4.376;2022-07-17T01:55:48;7.30;;;3.00;;
70052;SDS011;57398;52.032;4.376;2022-07-17T01:58:16;7.75;;;3.15;;
70052;SDS011;57398;52.032;4.376;2022-07-17T02:00:43;6.55;;;3.00;;
70052;SDS011;57398;52.032;4.376;2022-07-17T02:03:11;6.60;;;2.72;;
70052;SDS011;57398;52.032;4.376;2022-07-17T02:05:39;12.10;;;4.00;;
70052;SDS011;57398;52.032;4.376;2022-07-17T02:08:07;7.57;;;3.00;;
70052;SDS011;57398;52.032;4.376;2022-07-17T02:10:34;8.02;;;3.30;;
70052;SDS011;57398;52.032;4.376;2022-07-17T02:13:03;6.80;;;3.10;;
70052;SDS011;57398;52.032;4.376;2022-07-17T02:15:31;7.20;;;3.50;;
70052;SDS011;57398;52.032;4.376;2022-07-17T02:17:58;6.83;;;3.00;;
70052;SDS011;57398;52.032;4.376;2022-07-17T02:20:26;5.57;;;3.25;;
70052;SDS011;57398;52.032;4.376;2022-07-17T02:22:53;7.28;;;2.92;;
70052;SDS011;57398;52.032;4.376;2022-07-17T02:25:22;6.53;;;3.10;;
70052;SDS011;57398;52.032;4.376;2022-07-17T02:27:49;8.93;;;3.13;;
70052;SDS011;57398;52.032;4.376;2022-07-17T02:30:18;7.37;;;3.07;;
70052;SDS011;57398;52.032;4.376;2022-07-17T02:32:46;5.78;;;2.90;;
70052;SDS011;57398;52.032;4.376;2022-07-17T02:35:13;7.00;;;3.13;;
70052;SDS011;57398;52.032;4.376;2022-07-17T02:37:41;7.38;;;3.25;;
70052;SDS011;57398;52.032;4.376;2022-07-17T02:40:10;6.25;;;3.40;;
70052;SDS011;57398;52.032;4.376;2022-07-17T02:42:37;7.47;;;3.43;;
70052;SDS011;57398;52.032;4.376;2022-07-17T02:45:06;8.10;;;3.50;;
70052;SDS011;57398;52.032;4.376;2022-07-17T02:47:35;6.55;;;3.20;;
70052;SDS011;57398;52.032;4.376;2022-07-17T02:50:03;6.38;;;3.15;;
70052;SDS011;57398;52.032;4.376;2022-07-17T02:52:32;7.35;;;3.20;;
70052;SDS011;57398;52.032;4.376;2022-07-17T02:55:00;6.40;;;3.10;;
70052;SDS011;57398;52.032;4.376;2022-07-17T02:57:27;9.18;;;3.35;;
70052;SDS011;57398;52.032;4.376;2022-07-17T02:59:55;7.40;;;2.92;;
70052;SDS011;57398;52.032;4.376;2022-07-17T03:02:22;8.18;;;3.55;;
70052;SDS011;57398;52.032;4.376;2022-07-17T03:04:52;7.90;;;3.70;;
70052;SDS011;57398;52.032;4.376;2022-07-17T03:07:19;8.50;;;3.40;;
70052;SDS011;57398;52.032;4.376;2022-07-17T03:09:47;6.82;;;3.53;;
70052;SDS011;57398;52.032;4.376;2022-07-17T03:12:14;7.38;;;3.28;;
70052;SDS011;57398;52.032;4.376;2022-07-17T03:14:42;8.32;;;3.35;;
70052;SDS011;57398;52.032;4.376;2022-07-17T03:17:10;9.23;;;3.38;;
70052;SDS011;57398;52.032;4.376;2022-07-17T03:19:37;7.17;;;3.40;;
70052;SDS011;57398;52.032;4.376;2022-07-17T03:22:06;7.35;;;3.45;;
70052;SDS011;57398;52.032;4.376;2022-07-17T03:24:34;8.07;;;3.20;;
70052;SDS011;57398;52.032;4.376;2022-07-17T03:27:01;7.05;;;3.30;;
70052;SDS011;57398;52.032;4.376;2022-07-17T03:29:29;7.22;;;2.88;;
70052;SDS011;57398;52.032;4.376;2022-07-17T03:31:56;6.93;;;3.07;;
70052;SDS011;57398;52.032;4.376;2022-07-17T03:34:24;6.53;;;2.90;;
70052;SDS011;57398;52.032;4.376;2022-07-17T03:36:52;7.45;;;3.05;;
70052;SDS011;57398;52.032;4.376;2022-07-17T03:39:21;6.45;;;3.30;;
70052;SDS011;57398;52.032;4.376;2022-07-17T03:41:48;5.88;;;3.17;;
70052;SDS011;57398;52.032;4.376;2022-07-17T03:44:16;7.03;;;3.40;;
70052;SDS011;57398;52.032;4.376;2022-07-17T03:46:45;8.20;;;3.35;;
70052;SDS011;57398;52.032;4.376;2022-07-17T03:49:13;6.97;;;3.38;;
70052;SDS011;57398;52.032;4.376;2022-07-17T03:51:42;8.05;;;2.90;;
70052;SDS011;57398;52.032;4.376;2022-07-17T03:54:10;7.47;;;3.22;;
70052;SDS011;57398;52.032;4.376;2022-07-17T03:56:39;8.13;;;3.43;;
70052;SDS011;57398;52.032;4.376;2022-07-17T03:59:07;8.50;;;3.25;;
70052;SDS011;57398;52.032;4.376;2022-07-17T04:01:35;7.97;;;3.40;;
70052;SDS011;57398;52.032;4.376;2022-07-17T04:04:03;6.38;;;3.10;;
70052;SDS011;57398;52.032;4.376;2022-07-17T04:06:30;7.65;;;3.67;;
70052;SDS011;57398;52.032;4.376;2022-07-17T04:08:58;9.50;;;3.50;;
70052;SDS011;57398;52.032;4.376;2022-07-17T04:11:25;8.77;;;3.50;;
70052;SDS011;57398;52.032;4.376;2022-07-17T04:13:55;8.15;;;3.60;;
70052;SDS011;57398;52.032;4.376;2022-07-17T04:16:22;8.73;;;3.78;;
70052;SDS011;57398;52.032;4.376;2022-07-17T04:18:50;7.72;;;3.70;;
70052;SDS011;57398;52.032;4.376;2022-07-17T04:21:18;9.20;;;3.43;;
70052;SDS011;57398;52.032;4.376;2022-07-17T04:23:46;7.35;;;3.40;;
70052;SDS011;57398;52.032;4.376;2022-07-17T04:26:14;6.93;;;3.45;;
70052;SDS011;57398;52.032;4.376;2022-07-17T04:28:41;7.18;;;3.60;;
70052;SDS011;57398;52.032;4.376;2022-07-17T04:31:10;8.00;;;3.65;;
70052;SDS011;57398;52.032;4.376;2022-07-17T04:33:38;7.80;;;3.40;;
70052;SDS011;57398;52.032;4.376;2022-07-17T04:36:05;6.78;;;3.50;;
70052;SDS011;57398;52.032;4.376;2022-07-17T04:38:33;8.75;;;3.30;;
70052;SDS011;57398;52.032;4.376;2022-07-17T04:41:01;8.38;;;3.60;;
70052;SDS011;57398;52.032;4.376;2022-07-17T04:43:28;8.60;;;3.58;;
70052;SDS011;57398;52.032;4.376;2022-07-17T04:45:56;9.60;;;3.77;;
70052;SDS011;57398;52.032;4.376;2022-07-17T04:48:25;7.30;;;2.90;;
70052;SDS011;57398;52.032;4.376;2022-07-17T04:50:52;8.35;;;3.20;;
70052;SDS011;57398;52.032;4.376;2022-07-17T04:53:20;8.70;;;3.50;;
70052;SDS011;57398;52.032;4.376;2022-07-17T04:55:49;8.93;;;3.53;;
70052;SDS011;57398;52.032;4.376;2022-07-17T04:58:17;11.43;;;3.90;;
70052;SDS011;57398;52.032;4.376;2022-07-17T05:00:44;8.60;;;3.33;;
70052;SDS011;57398;52.032;4.376;2022-07-17T05:03:12;7.75;;;3.50;;
70052;SDS011;57398;52.032;4.376;2022-07-17T05:05:42;10.23;;;4.30;;
70052;SDS011;57398;52.032;4.376;2022-07-17T05:08:10;9.23;;;4.20;;
70052;SDS011;57398;52.032;4.376;2022-07-17T05:10:37;8.10;;;3.70;;
70052;SDS011;57398;52.032;4.376;2022-07-17T05:13:05;8.10;;;3.90;;
70052;SDS011;57398;52.032;4.376;2022-07-17T05:15:33;8.95;;;3.92;;
70052;SDS011;57398;52.032;4.376;2022-07-17T05:18:06;10.30;;;4.13;;
70052;SDS011;57398;52.032;4.376;2022-07-17T05:20:34;9.98;;;3.90;;
70052;SDS011;57398;52.032;4.376;2022-07-17T05:23:02;9.30;;;4.50;;
70052;SDS011;57398;52.032;4.376;2022-07-17T05:25:30;9.05;;;3.60;;
70052;SDS011;57398;52.032;4.376;2022-07-17T05:27:57;9.02;;;3.65;;
70052;SDS011;57398;52.032;4.376;2022-07-17T05:30:25;8.60;;;3.45;;
70052;SDS011;57398;52.032;4.376;2022-07-17T05:32:53;7.43;;;3.13;;
70052;SDS011;57398;52.032;4.376;2022-07-17T05:35:21;8.87;;;2.87;;
70052;SDS011;57398;52.032;4.376;2022-07-17T05:37:48;6.68;;;2.85;;
70052;SDS011;57398;52.032;4.376;2022-07-17T05:40:17;7.03;;;2.80;;
70052;SDS011;57398;52.032;4.376;2022-07-17T05:42:44;8.27;;;2.55;;
70052;SDS011;57398;52.032;4.376;2022-07-17T05:45:12;7.85;;;2.55;;
70052;SDS011;57398;52.032;4.376;2022-07-17T05:47:40;7.50;;;2.60;;
70052;SDS011;57398;52.032;4.376;2022-07-17T05:50:07;5.50;;;2.33;;
70052;SDS011;57398;52.032;4.376;2022-07-17T05:52:35;6.22;;;2.42;;
70052;SDS011;57398;52.032;4.376;2022-07-17T05:55:03;6.75;;;2.30;;
70052;SDS011;57398;52.032;4.376;2022-07-17T05:57:32;6.93;;;2.20;;
70052;SDS011;57398;52.032;4.376;2022-07-17T06:00:00;5.40;;;2.00;;
70052;SDS011;57398;52.032;4.376;2022-07-17T06:02:27;6.15;;;1.90;;
70052;SDS011;57398;52.032;4.376;2022-07-17T06:04:55;6.03;;;1.90;;
70052;SDS011;57398;52.032;4.376;2022-07-17T06:07:22;4.28;;;1.80;;
70052;SDS011;57398;52.032;4.376;2022-07-17T06:09:50;5.35;;;1.90;;
70052;SDS011;57398;52.032;4.376;2022-07-17T06:12:18;6.57;;;2.00;;
70052;SDS011;57398;52.032;4.376;2022-07-17T06:14:46;5.60;;;2.20;;
70052;SDS011;57398;52.032;4.376;2022-07-17T06:17:14;4.70;;;1.27;;
70052;SDS011;57398;52.032;4.376;2022-07-17T06:19:45;6.68;;;1.42;;
70052;SDS011;57398;52.032;4.376;2022-07-17T06:22:12;5.47;;;1.23;;
70052;SDS011;57398;52.032;4.376;2022-07-17T06:24:40;4.40;;;1.40;;
70052;SDS011;57398;52.032;4.376;2022-07-17T06:27:07;5.47;;;1.30;;
70052;SDS011;57398;52.032;4.376;2022-07-17T06:29:35;5.63;;;1.50;;
70052;SDS011;57398;52.032;4.376;2022-07-17T06:32:08;5.45;;;2.00;;
70052;SDS011;57398;52.032;4.376;2022-07-17T06:34:36;5.75;;;1.75;;
70052;SDS011;57398;52.032;4.376;2022-07-17T06:37:03;4.37;;;1.60;;
70052;SDS011;57398;52.032;4.376;2022-07-17T06:39:31;5.75;;;1.52;;
70052;SDS011;57398;52.032;4.376;2022-07-17T06:41:58;5.18;;;1.70;;
70052;SDS011;57398;52.032;4.376;2022-07-17T06:44:26;5.78;;;1.42;;
70052;SDS011;57398;52.032;4.376;2022-07-17T06:46:53;4.78;;;1.52;;
70052;SDS011;57398;52.032;4.376;2022-07-17T06:49:22;4.97;;;1.60;;
70052;SDS011;57398;52.032;4.376;2022-07-17T06:51:50;4.25;;;1.13;;
70052;SDS011;57398;52.032;4.376;2022-07-17T06:54:17;3.80;;;1.30;;
70052;SDS011;57398;52.032;4.376;2022-07-17T06:56:45;3.90;;;1.17;;
70052;SDS011;57398;52.032;4.376;2022-07-17T06:59:12;3.88;;;1.40;;
70052;SDS011;57398;52.032;4.376;2022-07-17T07:01:40;4.93;;;1.60;;
70052;SDS011;57398;52.032;4.376;2022-07-17T07:04:07;5.63;;;1.50;;
70052;SDS011;57398;52.032;4.376;2022-07-17T07:06:36;5.70;;;1.50;;
70052;SDS011;57398;52.032;4.376;2022-07-17T07:09:04;4.50;;;1.85;;
70052;SDS011;57398;52.032;4.376;2022-07-17T07:11:31;5.88;;;1.73;;
70052;SDS011;57398;52.032;4.376;2022-07-17T07:13:59;3.73;;;1.40;;
70052;SDS011;57398;52.032;4.376;2022-07-17T07:16:26;7.05;;;1.48;;
70052;SDS011;57398;52.032;4.376;2022-07-17T07:18:54;4.90;;;1.20;;
70052;SDS011;57398;52.032;4.376;2022-07-17T07:21:22;6.65;;;1.50;;
70052;SDS011;57398;52.032;4.376;2022-07-17T07:23:53;3.50;;;1.13;;
70052;SDS011;57398;52.032;4.376;2022-07-17T07:26:21;5.83;;;1.50;;
70052;SDS011;57398;52.032;4.376;2022-07-17T07:28:49;6.40;;;1.35;;
70052;SDS011;57398;52.032;4.376;2022-07-17T07:31:16;3.67;;;1.50;;
70052;SDS011;57398;52.032;4.376;2022-07-17T07:33:44;4.28;;;1.38;;
70052;SDS011;57398;52.032;4.376;2022-07-17T07:36:12;6.50;;;1.40;;
70052;SDS011;57398;52.032;4.376;2022-07-17T07:38:44;5.03;;;1.30;;
70052;SDS011;57398;52.032;4.376;2022-07-17T07:41:13;6.85;;;1.70;;
70052;SDS011;57398;52.032;4.376;2022-07-17T07:43:41;6.97;;;1.42;;
70052;SDS011;57398;52.032;4.376;2022-07-17T07:46:09;5.45;;;1.50;;
70052;SDS011;57398;52.032;4.376;2022-07-17T07:48:37;5.18;;;1.50;;
70052;SDS011;57398;52.032;4.376;2022-07-17T07:51:04;5.37;;;1.67;;
70052;SDS011;57398;52.032;4.376;2022-07-17T07:53:32;7.85;;;1.60;;
70052;SDS011;57398;52.032;4.376;2022-07-17T07:55:59;4.78;;;1.17;;
70052;SDS011;57398;52.032;4.376;2022-07-17T07:58:28;4.82;;;1.30;;
70052;SDS011;57398;52.032;4.376;2022-07-17T08:00:56;3.58;;;1.05;;
70052;SDS011;57398;52.032;4.376;2022-07-17T08:03:24;3.77;;;1.40;;
70052;SDS011;57398;52.032;4.376;2022-07-17T08:05:52;5.10;;;1.40;;
70052;SDS011;57398;52.032;4.376;2022-07-17T08:08:19;6.95;;;1.20;;
70052;SDS011;57398;52.032;4.376;2022-07-17T08:10:47;4.82;;;1.33;;
70052;SDS011;57398;52.032;4.376;2022-07-17T08:13:14;3.90;;;1.40;;
70052;SDS011;57398;52.032;4.376;2022-07-17T08:15:43;5.30;;;1.20;;
70052;SDS011;57398;52.032;4.376;2022-07-17T08:18:11;4.78;;;1.30;;
70052;SDS011;57398;52.032;4.376;2022-07-17T08:20:38;3.58;;;1.20;;
70052;SDS011;57398;52.032;4.376;2022-07-17T08:23:06;5.93;;;1.30;;
70052;SDS011;57398;52.032;4.376;2022-07-17T08:25:34;3.40;;;1.00;;
70052;SDS011;57398;52.032;4.376;2022-07-17T08:28:03;6.40;;;1.20;;
70052;SDS011;57398;52.032;4.376;2022-07-17T08:30:30;4.65;;;1.20;;
70052;SDS011;57398;52.032;4.376;2022-07-17T08:33:03;4.85;;;1.30;;
70052;SDS011;57398;52.032;4.376;2022-07-17T08:35:30;4.78;;;1.17;;
70052;SDS011;57398;52.032;4.376;2022-07-17T08:37:58;4.70;;;1.55;;
70052;SDS011;57398;52.032;4.376;2022-07-17T08:40:27;5.07;;;1.30;;
70052;SDS011;57398;52.032;4.376;2022-07-17T08:42:55;6.03;;;1.30;;
70052;SDS011;57398;52.032;4.376;2022-07-17T08:45:24;5.53;;;1.63;;
70052;SDS011;57398;52.032;4.376;2022-07-17T08:47:52;5.30;;;1.40;;
70052;SDS011;57398;52.032;4.376;2022-07-17T08:50:22;4.45;;;1.25;;
70052;SDS011;57398;52.032;4.376;2022-07-17T08:52:50;4.73;;;1.20;;
70052;SDS011;57398;52.032;4.376;2022-07-17T08:55:17;5.40;;;1.40;;
70052;SDS011;57398;52.032;4.376;2022-07-17T08:57:45;4.72;;;1.50;;
70052;SDS011;57398;52.032;4.376;2022-07-17T09:00:13;4.90;;;1.27;;
70052;SDS011;57398;52.032;4.376;2022-07-17T09:02:52;4.63;;;1.20;;
70052;SDS011;57398;52.032;4.376;2022-07-17T09:05:22;4.27;;;1.40;;
70052;SDS011;57398;52.032;4.376;2022-07-17T09:07:50;4.93;;;1.48;;
70052;SDS011;57398;52.032;4.376;2022-07-17T09:10:18;3.63;;;1.60;;
70052;SDS011;57398;52.032;4.376;2022-07-17T09:12:45;3.72;;;1.58;;
70052;SDS011;57398;52.032;4.376;2022-07-17T09:15:14;4.25;;;1.50;;
70052;SDS011;57398;52.032;4.376;2022-07-17T09:17:47;3.97;;;1.47;;
70052;SDS011;57398;52.032;4.376;2022-07-17T09:20:15;4.18;;;1.35;;
70052;SDS011;57398;52.032;4.376;2022-07-17T09:22:44;3.85;;;1.20;;
70052;SDS011;57398;52.032;4.376;2022-07-17T09:25:12;3.58;;;1.23;;
70052;SDS011;57398;52.032;4.376;2022-07-17T09:27:40;4.30;;;1.42;;
70052;SDS011;57398;52.032;4.376;2022-07-17T09:30:08;3.43;;;1.10;;
70052;SDS011;57398;52.032;4.376;2022-07-17T09:32:38;4.18;;;1.20;;
70052;SDS011;57398;52.032;4.376;2022-07-17T09:35:06;2.70;;;0.93;;
70052;SDS011;57398;52.032;4.376;2022-07-17T09:37:35;3.30;;;1.20;;
70052;SDS011;57398;52.032;4.376;2022-07-17T09:40:09;3.17;;;1.02;;
70052;SDS011;57398;52.032;4.376;2022-07-17T09:42:37;3.20;;;0.80;;
70052;SDS011;57398;52.032;4.376;2022-07-17T09:45:05;3.00;;;1.00;;
70052;SDS011;57398;52.032;4.376;2022-07-17T09:47:34;2.92;;;1.00;;
70052;SDS011;57398;52.032;4.376;2022-07-17T09:50:03;3.83;;;1.08;;
70052;SDS011;57398;52.032;4.376;2022-07-17T09:52:32;3.78;;;1.02;;
70052;SDS011;57398;52.032;4.376;2022-07-17T09:55:01;3.07;;;1.00;;
70052;SDS011;57398;52.032;4.376;2022-07-17T09:57:50;3.35;;;1.00;;
70052;SDS011;57398;52.032;4.376;2022-07-17T10:00:20;4.03;;;1.10;;
70052;SDS011;57398;52.032;4.376;2022-07-17T10:02:49;4.60;;;1.20;;
70052;SDS011;57398;52.032;4.376;2022-07-17T10:05:17;4.32;;;1.33;;
70052;SDS011;57398;52.032;4.376;2022-07-17T10:07:45;3.10;;;1.10;;
70052;SDS011;57398;52.032;4.376;2022-07-17T10:10:13;2.78;;;1.00;;
70052;SDS011;57398;52.032;4.376;2022-07-17T10:12:42;3.50;;;1.02;;
70052;SDS011;57398;52.032;4.376;2022-07-17T10:15:12;5.15;;;1.00;;
70052;SDS011;57398;52.032;4.376;2022-07-17T10:17:39;4.72;;;1.20;;
70052;SDS011;57398;52.032;4.376;2022-07-17T10:20:12;3.13;;;1.10;;
70052;SDS011;57398;52.032;4.376;2022-07-17T10:22:40;4.95;;;1.13;;
70052;SDS011;57398;52.032;4.376;2022-07-17T10:25:11;2.70;;;1.00;;
70052;SDS011;57398;52.032;4.376;2022-07-17T10:27:45;3.22;;;1.00;;
70052;SDS011;57398;52.032;4.376;2022-07-17T10:30:19;2.92;;;1.10;;
70052;SDS011;57398;52.032;4.376;2022-07-17T10:32:51;3.70;;;1.20;;
70052;SDS011;57398;52.032;4.376;2022-07-17T10:35:18;2.80;;;0.90;;
70052;SDS011;57398;52.032;4.376;2022-07-17T10:37:49;3.75;;;1.15;;
70052;SDS011;57398;52.032;4.376;2022-07-17T10:40:17;2.95;;;1.00;;
70052;SDS011;57398;52.032;4.376;2022-07-17T10:42:57;3.42;;;1.08;;
70052;SDS011;57398;52.032;4.376;2022-07-17T10:45:28;3.40;;;1.20;;
70052;SDS011;57398;52.032;4.376;2022-07-17T10:48:00;3.40;;;1.27;;
70052;SDS011;57398;52.032;4.376;2022-07-17T10:50:29;3.53;;;1.35;;
70052;SDS011;57398;52.032;4.376;2022-07-17T10:52:58;4.20;;;1.38;;
70052;SDS011;57398;52.032;4.376;2022-07-17T10:55:25;3.67;;;1.30;;
70052;SDS011;57398;52.032;4.376;2022-07-17T10:57:54;4.30;;;1.50;;
70052;SDS011;57398;52.032;4.376;2022-07-17T11:00:22;4.57;;;1.40;;
70052;SDS011;57398;52.032;4.376;2022-07-17T11:02:51;4.72;;;1.20;;
70052;SDS011;57398;52.032;4.376;2022-07-17T11:05:19;4.35;;;1.20;;
70052;SDS011;57398;52.032;4.376;2022-07-17T11:07:49;3.00;;;1.02;;
70052;SDS011;57398;52.032;4.376;2022-07-17T11:10:17;4.60;;;1.23;;
70052;SDS011;57398;52.032;4.376;2022-07-17T11:12:44;2.70;;;0.90;;
70052;SDS011;57398;52.032;4.376;2022-07-17T11:15:12;3.45;;;1.23;;
70052;SDS011;57398;52.032;4.376;2022-07-17T11:17:43;2.83;;;1.10;;
70052;SDS011;57398;52.032;4.376;2022-07-17T11:20:12;3.85;;;1.38;;
70052;SDS011;57398;52.032;4.376;2022-07-17T11:22:40;5.20;;;1.40;;
70052;SDS011;57398;52.032;4.376;2022-07-17T11:25:08;5.30;;;1.60;;
70052;SDS011;57398;52.032;4.376;2022-07-17T11:27:37;4.05;;;1.40;;
70052;SDS011;57398;52.032;4.376;2022-07-17T11:30:10;5.25;;;1.52;;
70052;SDS011;57398;52.032;4.376;2022-07-17T11:32:40;3.92;;;1.25;;
70052;SDS011;57398;52.032;4.376;2022-07-17T11:35:19;4.90;;;1.57;;
70052;SDS011;57398;52.032;4.376;2022-07-17T11:38:07;4.40;;;1.70;;
70052;SDS011;57398;52.032;4.376;2022-07-17T11:40:34;4.70;;;1.70;;
70052;SDS011;57398;52.032;4.376;2022-07-17T11:43:11;5.10;;;2.00;;
70052;SDS011;57398;52.032;4.376;2022-07-17T11:45:39;4.78;;;1.75;;
70052;SDS011;57398;52.032;4.376;2022-07-17T11:48:07;4.60;;;1.80;;
70052;SDS011;57398;52.032;4.376;2022-07-17T11:50:36;4.93;;;1.73;;
70052;SDS011;57398;52.032;4.376;2022-07-17T11:53:05;5.20;;;1.88;;
70052;SDS011;57398;52.032;4.376;2022-07-17T11:55:36;6.10;;;1.88;;
70052;SDS011;57398;52.032;4.376;2022-07-17T11:58:04;5.72;;;1.90;;
70052;SDS011;57398;52.032;4.376;2022-07-17T12:00:32;5.07;;;1.70;;
70052;SDS011;57398;52.032;4.376;2022-07-17T12:03:00;5.45;;;2.20;;
70052;SDS011;57398;52.032;4.376;2022-07-17T12:05:29;5.32;;;2.20;;
70052;SDS011;57398;52.032;4.376;2022-07-17T12:07:58;5.38;;;2.05;;
70052;SDS011;57398;52.032;4.376;2022-07-17T12:10:27;5.43;;;2.17;;
70052;SDS011;57398;52.032;4.376;2022-07-17T12:12:57;6.70;;;2.10;;
70052;SDS011;57398;52.032;4.376;2022-07-17T12:15:34;5.25;;;1.90;;
70052;SDS011;57398;52.032;4.376;2022-07-17T12:18:02;4.60;;;1.70;;
70052;SDS011;57398;52.032;4.376;2022-07-17T12:20:40;5.13;;;1.70;;
70052;SDS011;57398;52.032;4.376;2022-07-17T12:23:10;4.90;;;2.10;;
70052;SDS011;57398;52.032;4.376;2022-07-17T12:26:02;5.73;;;1.80;;
70052;SDS011;57398;52.032;4.376;2022-07-17T12:28:30;5.90;;;2.20;;
70052;SDS011;57398;52.032;4.376;2022-07-17T12:30:58;5.78;;;2.30;;
70052;SDS011;57398;52.032;4.376;2022-07-17T12:33:25;5.95;;;1.90;;
70052;SDS011;57398;52.032;4.376;2022-07-17T12:35:53;6.25;;;2.35;;
70052;SDS011;57398;52.032;4.376;2022-07-17T12:38:22;4.93;;;1.93;;
70052;SDS011;57398;52.032;4.376;2022-07-17T12:40:49;5.47;;;2.00;;
70052;SDS011;57398;52.032;4.376;2022-07-17T12:43:17;5.13;;;2.22;;
70052;SDS011;57398;52.032;4.376;2022-07-17T12:45:45;5.40;;;2.30;;
70052;SDS011;57398;52.032;4.376;2022-07-17T12:48:12;5.60;;;2.00;;
70052;SDS011;57398;52.032;4.376;2022-07-17T12:50:41;5.07;;;1.83;;
70052;SDS011;57398;52.032;4.376;2022-07-17T12:53:08;5.15;;;1.70;;
70052;SDS011;57398;52.032;4.376;2022-07-17T12:55:37;5.28;;;2.10;;
70052;SDS011;57398;52.032;4.376;2022-07-17T12:58:05;5.35;;;1.90;;
70052;SDS011;57398;52.032;4.376;2022-07-17T13:00:33;5.00;;;2.00;;
70052;SDS011;57398;52.032;4.376;2022-07-17T13:03:01;5.23;;;1.93;;
70052;SDS011;57398;52.032;4.376;2022-07-17T13:05:29;6.20;;;1.98;;
70052;SDS011;57398;52.032;4.376;2022-07-17T13:07:56;5.25;;;1.92;;
70052;SDS011;57398;52.032;4.376;2022-07-17T13:10:24;4.65;;;1.95;;
70052;SDS011;57398;52.032;4.376;2022-07-17T13:12:53;5.00;;;1.98;;
70052;SDS011;57398;52.032;4.376;2022-07-17T13:15:20;4.33;;;1.70;;
70052;SDS011;57398;52.032;4.376;2022-07-17T13:17:53;5.28;;;1.85;;
70052;SDS011;57398;52.032;4.376;2022-07-17T13:20:21;4.68;;;2.03;;
70052;SDS011;57398;52.032;4.376;2022-07-17T13:22:49;6.28;;;1.98;;
70052;SDS011;57398;52.032;4.376;2022-07-17T13:25:17;6.15;;;2.00;;
70052;SDS011;57398;52.032;4.376;2022-07-17T13:27:45;7.20;;;2.20;;
70052;SDS011;57398;52.032;4.376;2022-07-17T13:30:14;5.95;;;2.03;;
70052;SDS011;57398;52.032;4.376;2022-07-17T13:32:41;5.13;;;2.15;;
70052;SDS011;57398;52.032;4.376;2022-07-17T13:35:09;8.80;;;2.13;;
70052;SDS011;57398;52.032;4.376;2022-07-17T13:37:37;5.68;;;2.30;;
70052;SDS011;57398;52.032;4.376;2022-07-17T13:40:05;6.90;;;2.10;;
70052;SDS011;57398;52.032;4.376;2022-07-17T13:42:33;5.20;;;2.03;;
70052;SDS011;57398;52.032;4.376;2022-07-17T13:45:01;5.30;;;2.40;;
70052;SDS011;57398;52.032;4.376;2022-07-17T13:47:30;5.68;;;1.98;;
70052;SDS011;57398;52.032;4.376;2022-07-17T13:49:58;5.28;;;2.00;;
70052;SDS011;57398;52.032;4.376;2022-07-17T13:52:25;5.53;;;2.30;;
70052;SDS011;57398;52.032;4.376;2022-07-17T13:54:52;5.70;;;2.17;;
70052;SDS011;57398;52.032;4.376;2022-07-17T13:57:40;6.05;;;2.60;;
70052;SDS011;57398;52.032;4.376;2022-07-17T14:00:09;6.10;;;2.38;;
70052;SDS011;57398;52.032;4.376;2022-07-17T14:02:38;6.57;;;2.97;;
70052;SDS011;57398;52.032;4.376;2022-07-17T14:05:06;5.43;;;2.50;;
70052;SDS011;57398;52.032;4.376;2022-07-17T14:07:34;5.35;;;2.40;;
70052;SDS011;57398;52.032;4.376;2022-07-17T14:10:02;5.22;;;2.33;;
70052;SDS011;57398;52.032;4.376;2022-07-17T14:12:30;7.15;;;2.78;;
70052;SDS011;57398;52.032;4.376;2022-07-17T14:14:58;5.63;;;2.28;;
70052;SDS011;57398;52.032;4.376;2022-07-17T14:17:25;7.13;;;2.60;;
70052;SDS011;57398;52.032;4.376;2022-07-17T14:19:55;6.00;;;2.75;;
70052;SDS011;57398;52.032;4.376;2022-07-17T14:22:22;5.93;;;2.53;;
70052;SDS011;57398;52.032;4.376;2022-07-17T14:24:50;7.63;;;2.70;;
70052;SDS011;57398;52.032;4.376;2022-07-17T14:27:17;6.13;;;2.50;;
70052;SDS011;57398;52.032;4.376;2022-07-17T14:29:45;6.27;;;2.90;;
70052;SDS011;57398;52.032;4.376;2022-07-17T14:32:12;6.47;;;2.70;;
70052;SDS011;57398;52.032;4.376;2022-07-17T14:34:40;6.55;;;2.90;;
70052;SDS011;57398;52.032;4.376;2022-07-17T14:37:09;7.38;;;3.20;;
70052;SDS011;57398;52.032;4.376;2022-07-17T14:39:36;7.05;;;2.80;;
70052;SDS011;57398;52.032;4.376;2022-07-17T14:42:04;6.30;;;2.43;;
70052;SDS011;57398;52.032;4.376;2022-07-17T14:44:31;7.28;;;3.20;;
70052;SDS011;57398;52.032;4.376;2022-07-17T14:47:02;8.10;;;3.33;;
70052;SDS011;57398;52.032;4.376;2022-07-17T14:49:29;7.50;;;3.17;;
70052;SDS011;57398;52.032;4.376;2022-07-17T14:51:57;6.85;;;3.03;;
70052;SDS011;57398;52.032;4.376;2022-07-17T14:54:26;7.17;;;2.87;;
70052;SDS011;57398;52.032;4.376;2022-07-17T14:56:53;6.78;;;2.83;;